In Rescue
 
Open Full Screen Window  High Contrast Mode
November 20, 2019 1:32 AM CST
Weather Information
Wind Direction
  ---
Wind Speed
  00 kt (0 mph)
Wind Gust
  00 kt (0 mph)
Altimeter
30.00 in
Visibility
10 SM
Temperature
02° C
36° F
Dewpoint
02° C
36° F
Humidity
100%
1hr Rain Fall
00.00 in.
24hr Rain Fall
00.01 in.
Sky Condition
Overcast @ 2,100 ft
MVFR

METAR KPEX 200732Z AUTO 00000KT 10SM OVC021 02/02 A3000 RMK AO2 T00210015

FAA Disclaimer: The data displayed is for advisory purposes only and is not to be used for flight planning or operations.